aviador You're here:

KSPA Decoded Metar

SPARTANBURG VOR in SC, USA
Report Time2017-07-22 10:35:00
UTC Time2017-07-22 10:38:58
Flight Rules vfr VFR
WindCalm
Visibility9999 m
Phenomena:N/A
Clouds:N/A
Expected CloudBase > 800 ft AGL from Temp-Dew spread
CeilingNone
Temp22°C (ISA +9)
Dew Point20°C (88% RH)
QNH1016 hPa
Density Alt2,251 ft
Elevation994 ft
Report Wrong Elevation
Raw Report
KSPA 221035Z AUTO 00000KT 10SM CLR 22/20 A2999 RMK AO2=

Extra information for KSPA:More info

Metar Taf Metar & Taf Last 4 Metars F.Rules Stats Wind Profile Meteogram Temp Stats Airport Information Weather charts Add Link Nearby VenuesMetar ALERT Operation Metar Decoded Social comments

AIRNAV info for KSPA